Time;durP1;ratioP1;P1;durP2;ratioP2;P2;SDS_P1;SDS_P2;PMS_P1;PMS_P2;Temp;Humidity;BMP_temperature;BMP_pressure;BME280_temperature;BME280_humidity;BME280_pressure;Samples;Min_cycle;Max_cycle;Signal;HPM_P1;HPM_P2
2021/08/31 00:00:09;;;;;;;7.97;5.63;;;;;;;;;;5074775;28;20016;-84
2021/08/31 00:08:41;;;;;;;10.48;6.70;;;;;;;;;;5057575;28;20040;-84
2021/08/31 00:11:07;;;;;;;9.25;6.90;;;;;;;;;;5054900;28;20043;-85
2021/08/31 00:13:33;;;;;;;8.95;6.50;;;;;;;;;;5061099;28;20092;-84
2021/08/31 00:15:59;;;;;;;8.65;6.63;;;;;;;;;;5062005;28;20057;-84
2021/08/31 00:18:25;;;;;;;9.10;6.60;;;;;;;;;;5062668;28;20032;-85
2021/08/31 00:24:22;;;;;;;7.95;6.82;;;;;;;;;;5061114;28;20064;-85
2021/08/31 00:29:53;;;;;;;10.00;7.15;;;;;;;;;;4971335;28;20144;-84
2021/08/31 00:32:20;;;;;;;11.60;7.65;;;;;;;;;;5059306;28;20029;-84
2021/08/31 00:34:46;;;;;;;11.65;8.50;;;;;;;;;;5075542;28;20029;-84
2021/08/31 00:37:45;;;;;;;13.70;7.93;;;;;;;;;;5062098;28;20028;-84
2021/08/31 00:43:46;;;;;;;13.75;8.82;;;;;;;;;;5059475;28;20028;-84
2021/08/31 00:46:27;;;;;;;11.27;8.55;;;;;;;;;;5058387;28;20025;-83
2021/08/31 00:49:07;;;;;;;12.88;8.65;;;;;;;;;;5053164;28;20512;-84
2021/08/31 00:51:53;;;;;;;14.30;9.35;;;;;;;;;;5058064;28;20051;-84
2021/08/31 00:54:30;;;;;;;15.85;9.40;;;;;;;;;;5058544;28;20033;-84
2021/08/31 00:57:06;;;;;;;18.38;10.10;;;;;;;;;;5053157;28;20059;-83
2021/08/31 00:59:33;;;;;;;16.55;9.90;;;;;;;;;;5059608;28;20104;-83
2021/08/31 01:02:01;;;;;;;17.65;10.70;;;;;;;;;;5058581;28;20044;-84
2021/08/31 01:04:30;;;;;;;20.92;11.15;;;;;;;;;;5058241;28;20033;-84
2021/08/31 01:07:00;;;;;;;15.45;10.02;;;;;;;;;;5059441;28;20060;-84
2021/08/31 01:09:41;;;;;;;16.63;9.90;;;;;;;;;;5057743;28;20104;-83
2021/08/31 01:12:08;;;;;;;15.50;10.55;;;;;;;;;;5057913;28;20516;-83
2021/08/31 01:14:35;;;;;;;18.15;12.02;;;;;;;;;;5059619;28;20033;-83
2021/08/31 01:17:01;;;;;;;14.75;10.25;;;;;;;;;;5058383;28;20040;-84
2021/08/31 01:19:30;;;;;;;14.63;10.38;;;;;;;;;;5058494;28;20029;-84
2021/08/31 01:21:58;;;;;;;11.00;8.48;;;;;;;;;;5059856;28;20032;-85
2021/08/31 01:24:36;;;;;;;14.82;10.50;;;;;;;;;;5064695;28;20117;-84
2021/08/31 01:27:03;;;;;;;14.68;10.90;;;;;;;;;;5066565;28;20337;-85
2021/08/31 01:29:30;;;;;;;16.02;10.70;;;;;;;;;;5062045;28;20025;-84
2021/08/31 01:32:13;;;;;;;14.13;9.68;;;;;;;;;;5069482;28;20043;-83
2021/08/31 01:34:59;;;;;;;16.58;9.73;;;;;;;;;;5073093;28;20025;-84
2021/08/31 01:37:25;;;;;;;15.75;10.32;;;;;;;;;;5062605;28;20029;-84
2021/08/31 01:39:51;;;;;;;16.65;10.98;;;;;;;;;;5059092;28;20029;-85
2021/08/31 01:42:17;;;;;;;18.45;11.25;;;;;;;;;;5060733;28;20032;-85
2021/08/31 01:44:43;;;;;;;13.18;10.27;;;;;;;;;;5058179;28;20037;-85
2021/08/31 01:47:12;;;;;;;14.13;9.43;;;;;;;;;;5057550;28;20032;-84
2021/08/31 01:49:39;;;;;;;15.18;9.43;;;;;;;;;;5059174;28;20021;-85
2021/08/31 01:52:05;;;;;;;13.88;9.90;;;;;;;;;;5059788;28;20045;-84
2021/08/31 01:54:31;;;;;;;12.27;8.77;;;;;;;;;;5058054;28;20045;-85
2021/08/31 01:57:00;;;;;;;12.82;8.00;;;;;;;;;;5063183;28;20045;-84
2021/08/31 01:59:26;;;;;;;16.25;10.98;;;;;;;;;;5072251;28;20055;-84
2021/08/31 02:01:52;;;;;;;15.65;10.48;;;;;;;;;;5053468;28;20017;-83
2021/08/31 02:04:18;;;;;;;15.93;10.90;;;;;;;;;;5063358;28;20025;-83
2021/08/31 02:06:44;;;;;;;14.63;11.13;;;;;;;;;;5055000;28;20083;-84
2021/08/31 02:09:10;;;;;;;14.98;10.88;;;;;;;;;;5053312;28;20056;-84
2021/08/31 02:11:36;;;;;;;14.68;9.63;;;;;;;;;;5055730;28;20035;-84
2021/08/31 02:14:02;;;;;;;12.52;9.45;;;;;;;;;;5055893;28;20443;-84
2021/08/31 02:16:28;;;;;;;14.10;10.05;;;;;;;;;;5056284;28;20393;-85
2021/08/31 02:18:54;;;;;;;12.20;9.50;;;;;;;;;;5057061;28;20379;-84
2021/08/31 02:21:21;;;;;;;14.52;9.60;;;;;;;;;;5055072;28;20029;-85
2021/08/31 02:23:47;;;;;;;13.63;10.23;;;;;;;;;;5055798;28;20052;-85
2021/08/31 02:26:13;;;;;;;14.02;10.90;;;;;;;;;;5055276;28;20033;-86
2021/08/31 02:28:39;;;;;;;13.18;9.35;;;;;;;;;;5054831;28;20075;-86
2021/08/31 02:31:05;;;;;;;15.02;11.10;;;;;;;;;;5056738;28;20029;-86
2021/08/31 02:33:31;;;;;;;14.93;10.55;;;;;;;;;;5067955;28;20036;-86
2021/08/31 02:35:57;;;;;;;15.57;10.15;;;;;;;;;;5062065;28;20351;-85
2021/08/31 02:38:24;;;;;;;15.82;10.75;;;;;;;;;;5056006;28;20044;-85
2021/08/31 02:40:50;;;;;;;13.50;9.43;;;;;;;;;;5039726;28;20037;-85
2021/08/31 02:43:17;;;;;;;16.95;10.65;;;;;;;;;;5061335;28;20035;-84
2021/08/31 02:45:44;;;;;;;13.02;9.70;;;;;;;;;;5059862;28;20139;-85
2021/08/31 02:48:10;;;;;;;13.95;9.93;;;;;;;;;;5056527;28;20020;-83
2021/08/31 02:50:36;;;;;;;13.40;9.40;;;;;;;;;;5056586;28;20021;-85
2021/08/31 02:53:03;;;;;;;10.88;8.30;;;;;;;;;;5058139;28;20028;-86
2021/08/31 02:55:29;;;;;;;10.85;8.35;;;;;;;;;;5056831;28;20052;-85
2021/08/31 02:57:58;;;;;;;11.73;8.50;;;;;;;;;;5057103;28;20390;-82
2021/08/31 03:00:30;;;;;;;9.35;8.18;;;;;;;;;;5063500;28;20024;-83
2021/08/31 03:02:56;;;;;;;12.40;9.07;;;;;;;;;;5067025;28;20036;-86
2021/08/31 03:05:22;;;;;;;10.80;8.57;;;;;;;;;;5076296;28;20037;-85
2021/08/31 03:07:48;;;;;;;10.30;8.15;;;;;;;;;;5058321;28;20033;-86
2021/08/31 03:10:14;;;;;;;8.98;7.28;;;;;;;;;;5056419;28;20047;-87
2021/08/31 03:12:40;;;;;;;11.25;8.27;;;;;;;;;;5056841;28;20119;-86
2021/08/31 03:15:06;;;;;;;10.13;7.90;;;;;;;;;;5055113;28;20025;-87
2021/08/31 03:17:32;;;;;;;11.18;8.02;;;;;;;;;;5057252;28;20037;-85
2021/08/31 03:19:58;;;;;;;12.77;8.50;;;;;;;;;;5056052;28;20048;-85
2021/08/31 03:22:24;;;;;;;13.52;8.13;;;;;;;;;;5055452;28;20397;-85
2021/08/31 03:24:53;;;;;;;11.02;8.02;;;;;;;;;;5055975;28;20502;-85
2021/08/31 03:27:19;;;;;;;12.00;8.15;;;;;;;;;;5040644;28;20025;-85
2021/08/31 03:29:45;;;;;;;9.85;7.50;;;;;;;;;;5057195;28;20017;-81
2021/08/31 03:32:11;;;;;;;9.05;6.95;;;;;;;;;;5078574;28;20020;-81
2021/08/31 03:34:38;;;;;;;10.07;7.32;;;;;;;;;;5074444;28;20040;-81
2021/08/31 03:37:04;;;;;;;8.75;6.63;;;;;;;;;;5076539;28;20037;-84
2021/08/31 03:39:30;;;;;;;8.30;6.28;;;;;;;;;;5063757;28;20020;-83
2021/08/31 03:42:05;;;;;;;7.03;5.97;;;;;;;;;;5061062;28;20033;-83
2021/08/31 03:44:31;;;;;;;7.15;6.20;;;;;;;;;;5057669;28;20063;-82
2021/08/31 03:47:01;;;;;;;7.15;6.30;;;;;;;;;;5056917;28;20025;-84
2021/08/31 03:49:28;;;;;;;6.22;5.20;;;;;;;;;;5059016;28;20021;-84
2021/08/31 03:51:57;;;;;;;7.35;6.00;;;;;;;;;;5055996;28;20025;-85
2021/08/31 03:54:32;;;;;;;7.78;6.70;;;;;;;;;;5057006;28;20481;-84
2021/08/31 03:57:02;;;;;;;7.65;6.32;;;;;;;;;;5057207;28;20374;-83
2021/08/31 03:59:28;;;;;;;8.45;7.10;;;;;;;;;;5057182;28;20047;-84
2021/08/31 04:01:58;;;;;;;10.77;7.57;;;;;;;;;;5063186;28;20021;-84
2021/08/31 04:04:46;;;;;;;9.55;7.15;;;;;;;;;;5063360;28;20037;-84
2021/08/31 04:13:30;;;;;;;11.18;7.45;;;;;;;;;;4991554;28;20048;-85
2021/08/31 04:19:01;;;;;;;7.20;6.30;;;;;;;;;;5026347;28;20308;-84
2021/08/31 04:21:55;;;;;;;8.30;6.72;;;;;;;;;;5033925;28;20294;-84
2021/08/31 04:24:40;;;;;;;7.82;6.95;;;;;;;;;;4982941;28;20411;-85
2021/08/31 04:29:59;;;;;;;9.55;7.00;;;;;;;;;;5061171;28;20055;-84
2021/08/31 04:32:28;;;;;;;8.05;7.25;;;;;;;;;;5045392;28;20421;-86
2021/08/31 04:34:56;;;;;;;8.55;7.22;;;;;;;;;;5052804;28;20021;-83
2021/08/31 04:37:47;;;;;;;10.50;8.48;;;;;;;;;;5075127;28;20040;-83
2021/08/31 04:40:17;;;;;;;9.57;7.95;;;;;;;;;;5074859;28;20033;-83
2021/08/31 04:42:44;;;;;;;9.32;7.55;;;;;;;;;;5064222;28;20036;-84
2021/08/31 04:45:16;;;;;;;9.75;7.88;;;;;;;;;;5061425;28;20060;-83
2021/08/31 04:47:45;;;;;;;7.95;6.65;;;;;;;;;;5062813;28;20088;-85
2021/08/31 04:50:13;;;;;;;10.55;7.70;;;;;;;;;;5059818;28;20021;-84
2021/08/31 04:52:54;;;;;;;8.35;6.85;;;;;;;;;;5060813;28;20033;-85
2021/08/31 04:55:42;;;;;;;8.40;6.82;;;;;;;;;;5057440;28;20024;-85
2021/08/31 04:58:10;;;;;;;7.90;7.07;;;;;;;;;;5053161;28;20029;-85
2021/08/31 05:00:45;;;;;;;6.90;6.20;;;;;;;;;;5063142;28;20075;-85
2021/08/31 05:03:14;;;;;;;7.70;6.80;;;;;;;;;;5060940;28;20050;-85
2021/08/31 05:05:43;;;;;;;10.55;6.47;;;;;;;;;;5038400;28;20029;-86
2021/08/31 05:08:37;;;;;;;7.50;6.18;;;;;;;;;;5037594;28;20037;-85
2021/08/31 05:11:05;;;;;;;7.97;6.70;;;;;;;;;;5054878;28;20304;-85
2021/08/31 05:13:56;;;;;;;8.27;6.82;;;;;;;;;;5040053;28;20033;-84
2021/08/31 05:16:45;;;;;;;7.80;6.63;;;;;;;;;;5038881;28;20029;-85
2021/08/31 05:19:27;;;;;;;7.82;6.35;;;;;;;;;;5037523;28;20056;-84
2021/08/31 05:22:02;;;;;;;7.35;6.45;;;;;;;;;;5073224;28;20045;-85
2021/08/31 05:24:31;;;;;;;7.10;6.38;;;;;;;;;;5063857;28;20033;-84
2021/08/31 05:27:09;;;;;;;7.13;6.38;;;;;;;;;;5072508;28;20048;-84
2021/08/31 05:29:59;;;;;;;7.97;6.35;;;;;;;;;;5072213;28;20033;-84
2021/08/31 05:32:33;;;;;;;7.25;6.55;;;;;;;;;;5065336;28;20028;-85
2021/08/31 05:35:18;;;;;;;7.18;6.15;;;;;;;;;;5085278;28;20055;-84
2021/08/31 05:37:52;;;;;;;9.52;7.38;;;;;;;;;;5084634;28;20043;-86
2021/08/31 05:41:07;;;;;;;9.73;7.55;;;;;;;;;;5082964;28;20101;-86
2021/08/31 05:43:34;;;;;;;9.02;7.15;;;;;;;;;;5037896;28;20144;-85
2021/08/31 05:46:00;;;;;;;9.18;7.40;;;;;;;;;;5058262;28;20152;-84
2021/08/31 05:48:46;;;;;;;9.80;7.32;;;;;;;;;;5058093;28;20028;-85
2021/08/31 05:51:32;;;;;;;10.07;6.50;;;;;;;;;;5058359;28;20631;-85
2021/08/31 05:54:27;;;;;;;7.57;6.78;;;;;;;;;;5040456;28;20037;-84
2021/08/31 05:57:09;;;;;;;9.93;6.60;;;;;;;;;;5012980;28;20041;-84
2021/08/31 05:59:41;;;;;;;8.52;6.30;;;;;;;;;;5060983;28;20045;-85
2021/08/31 06:02:19;;;;;;;8.00;6.70;;;;;;;;;;5063548;28;20480;-84
2021/08/31 06:04:49;;;;;;;11.15;7.60;;;;;;;;;;5044322;28;20040;-85
2021/08/31 06:07:45;;;;;;;10.48;7.30;;;;;;;;;;5058822;28;20041;-85
2021/08/31 06:10:27;;;;;;;8.85;7.45;;;;;;;;;;5062885;28;20025;-84
2021/08/31 06:12:53;;;;;;;9.98;6.57;;;;;;;;;;5059507;28;20033;-84
2021/08/31 06:15:19;;;;;;;7.95;7.15;;;;;;;;;;5058566;28;20063;-83
2021/08/31 06:17:45;;;;;;;11.05;7.45;;;;;;;;;;5058936;28;20024;-84
2021/08/31 06:20:11;;;;;;;9.32;7.38;;;;;;;;;;5058958;28;20025;-84
2021/08/31 06:22:37;;;;;;;9.75;8.23;;;;;;;;;;5057980;28;20060;-84
2021/08/31 06:25:04;;;;;;;9.80;7.75;;;;;;;;;;5059285;28;20434;-84
2021/08/31 06:27:30;;;;;;;8.13;7.00;;;;;;;;;;5059391;28;20029;-84
2021/08/31 06:29:56;;;;;;;10.60;7.78;;;;;;;;;;5059754;28;20021;-84
2021/08/31 06:32:22;;;;;;;9.55;7.35;;;;;;;;;;5058730;28;20497;-83
2021/08/31 06:34:48;;;;;;;11.07;7.50;;;;;;;;;;5040913;28;20025;-83
2021/08/31 06:37:14;;;;;;;10.40;7.55;;;;;;;;;;5041827;28;20589;-83
2021/08/31 06:39:40;;;;;;;7.82;6.93;;;;;;;;;;5023936;28;20037;-83
2021/08/31 06:42:06;;;;;;;9.95;7.25;;;;;;;;;;5044914;28;20053;-83
2021/08/31 06:44:32;;;;;;;8.68;7.18;;;;;;;;;;5057662;28;20058;-83
2021/08/31 06:46:58;;;;;;;10.02;7.43;;;;;;;;;;5061501;28;20021;-83
2021/08/31 06:49:24;;;;;;;10.20;8.25;;;;;;;;;;5069794;28;20099;-84
2021/08/31 06:51:50;;;;;;;10.02;8.60;;;;;;;;;;5072253;28;20032;-84
2021/08/31 06:54:17;;;;;;;11.38;7.90;;;;;;;;;;5057603;28;20025;-83
2021/08/31 06:56:46;;;;;;;8.35;7.38;;;;;;;;;;5079422;28;20020;-84
2021/08/31 06:59:13;;;;;;;11.15;8.82;;;;;;;;;;5065371;28;20415;-83
2021/08/31 07:01:39;;;;;;;11.43;9.13;;;;;;;;;;5065562;28;20090;-84
2021/08/31 07:04:05;;;;;;;12.93;8.95;;;;;;;;;;5059508;28;20029;-85
2021/08/31 07:06:31;;;;;;;12.02;9.73;;;;;;;;;;5058983;28;20025;-84
2021/08/31 07:08:59;;;;;;;11.30;7.75;;;;;;;;;;5060377;28;20487;-84
2021/08/31 07:11:25;;;;;;;10.30;8.05;;;;;;;;;;5060849;28;20047;-84
2021/08/31 07:13:51;;;;;;;8.85;7.90;;;;;;;;;;5066681;28;20027;-84
2021/08/31 07:16:17;;;;;;;10.48;7.40;;;;;;;;;;5062950;28;20041;-83
2021/08/31 07:18:43;;;;;;;9.10;7.43;;;;;;;;;;5062307;28;20021;-84
2021/08/31 07:21:09;;;;;;;9.25;7.53;;;;;;;;;;5061899;28;20025;-84
2021/08/31 07:23:37;;;;;;;8.93;7.13;;;;;;;;;;5059618;28;20029;-84
2021/08/31 07:26:03;;;;;;;6.70;6.00;;;;;;;;;;5059119;28;20025;-83
2021/08/31 07:28:29;;;;;;;10.25;6.15;;;;;;;;;;5059268;28;20080;-85
2021/08/31 07:30:55;;;;;;;6.20;5.60;;;;;;;;;;5060211;28;20029;-83
2021/08/31 07:33:21;;;;;;;6.75;6.05;;;;;;;;;;5071561;28;20043;-84
2021/08/31 07:35:47;;;;;;;8.27;6.68;;;;;;;;;;5070992;28;20158;-84
2021/08/31 07:38:39;;;;;;;9.43;7.80;;;;;;;;;;5075795;28;20040;-85
2021/08/31 07:41:51;;;;;;;8.48;6.65;;;;;;;;;;5077900;28;20021;-85
2021/08/31 07:44:19;;;;;;;7.32;6.00;;;;;;;;;;5005679;28;20042;-85
2021/08/31 07:46:56;;;;;;;7.20;6.43;;;;;;;;;;4999099;28;20196;-85
2021/08/31 07:49:53;;;;;;;8.63;6.68;;;;;;;;;;5057586;28;20028;-86
2021/08/31 07:52:51;;;;;;;8.20;6.75;;;;;;;;;;5060512;28;20043;-84
2021/08/31 07:55:25;;;;;;;9.98;7.05;;;;;;;;;;5054147;28;20056;-85
2021/08/31 07:58:26;;;;;;;10.38;7.35;;;;;;;;;;5061161;28;20040;-85
2021/08/31 08:00:54;;;;;;;10.10;7.18;;;;;;;;;;5056150;28;20195;-85
2021/08/31 08:03:20;;;;;;;9.55;7.93;;;;;;;;;;5058319;28;20049;-85
2021/08/31 08:05:51;;;;;;;10.70;7.97;;;;;;;;;;5064007;28;20069;-85
2021/08/31 08:08:33;;;;;;;9.65;8.05;;;;;;;;;;5064318;28;20405;-85
2021/08/31 08:11:12;;;;;;;12.32;7.55;;;;;;;;;;5059833;28;20029;-85
2021/08/31 08:13:40;;;;;;;8.95;6.85;;;;;;;;;;5061756;28;20033;-86
2021/08/31 08:16:11;;;;;;;8.88;6.63;;;;;;;;;;5065209;28;20041;-85
2021/08/31 08:18:37;;;;;;;9.38;6.90;;;;;;;;;;5062231;28;20029;-84
2021/08/31 08:21:03;;;;;;;10.52;8.20;;;;;;;;;;5062809;28;20028;-84
2021/08/31 08:23:29;;;;;;;9.30;7.93;;;;;;;;;;5061177;28;20029;-84
2021/08/31 08:26:13;;;;;;;11.57;8.75;;;;;;;;;;5114375;23;20045;-85
2021/08/31 08:28:41;;;;;;;11.80;9.15;;;;;;;;;;5083598;28;20024;-85
2021/08/31 08:31:07;;;;;;;11.48;8.38;;;;;;;;;;5084828;28;20017;-84
2021/08/31 08:33:34;;;;;;;9.73;7.60;;;;;;;;;;5083113;28;20017;-85
2021/08/31 08:36:00;;;;;;;10.63;7.85;;;;;;;;;;5085164;28;20032;-85
2021/08/31 08:41:39;;;;;;;8.90;7.22;;;;;;;;;;5059351;28;20029;-85
2021/08/31 08:44:08;;;;;;;11.60;7.95;;;;;;;;;;5066169;28;20060;-86
2021/08/31 08:46:35;;;;;;;9.98;7.85;;;;;;;;;;5068223;28;20474;-86
2021/08/31 08:49:01;;;;;;;9.98;8.27;;;;;;;;;;5062334;28;20447;-81
2021/08/31 08:51:28;;;;;;;8.60;7.70;;;;;;;;;;5065028;28;20025;-82
2021/08/31 08:53:54;;;;;;;10.02;8.23;;;;;;;;;;5065595;28;20080;-82
2021/08/31 08:56:21;;;;;;;7.90;7.10;;;;;;;;;;5054831;28;20026;-81
2021/08/31 08:58:47;;;;;;;9.55;8.05;;;;;;;;;;5050876;28;20026;-82
2021/08/31 09:01:13;;;;;;;8.38;7.25;;;;;;;;;;5053103;28;20021;-85
2021/08/31 09:03:54;;;;;;;8.82;7.85;;;;;;;;;;5081174;28;20024;-81
2021/08/31 09:06:21;;;;;;;8.10;7.30;;;;;;;;;;5077227;28;20430;-84
2021/08/31 09:08:55;;;;;;;10.88;8.07;;;;;;;;;;5073085;28;20080;-85
2021/08/31 09:11:34;;;;;;;7.22;6.53;;;;;;;;;;5073481;28;20023;-84
2021/08/31 09:14:19;;;;;;;7.00;6.32;;;;;;;;;;5072660;28;20021;-84
2021/08/31 09:16:47;;;;;;;7.03;6.40;;;;;;;;;;5060108;28;20029;-84
2021/08/31 09:19:13;;;;;;;7.00;6.30;;;;;;;;;;5063914;28;20039;-83
2021/08/31 09:21:40;;;;;;;7.88;6.10;;;;;;;;;;5071922;28;20120;-82
2021/08/31 09:24:06;;;;;;;9.57;6.38;;;;;;;;;;5071049;28;20043;-86
2021/08/31 09:26:36;;;;;;;10.52;6.18;;;;;;;;;;5071268;28;20136;-84
2021/08/31 09:29:12;;;;;;;5.60;4.97;;;;;;;;;;5072163;28;20029;-86
2021/08/31 09:31:57;;;;;;;7.50;5.43;;;;;;;;;;5070052;28;20029;-84
2021/08/31 09:34:35;;;;;;;6.22;5.60;;;;;;;;;;5043482;28;20029;-84
2021/08/31 09:37:20;;;;;;;9.00;6.07;;;;;;;;;;5042901;28;20061;-85
2021/08/31 09:39:46;;;;;;;5.53;5.00;;;;;;;;;;5055587;28;20045;-85
2021/08/31 09:42:13;;;;;;;10.13;6.25;;;;;;;;;;5076948;28;20025;-86
2021/08/31 09:44:39;;;;;;;7.50;5.47;;;;;;;;;;5069365;28;20037;-84
2021/08/31 09:47:05;;;;;;;5.82;5.05;;;;;;;;;;5060872;28;20029;-84
2021/08/31 09:49:32;;;;;;;7.57;4.90;;;;;;;;;;5075685;28;20021;-86
2021/08/31 09:52:14;;;;;;;5.07;4.68;;;;;;;;;;5059651;28;20025;-84
2021/08/31 09:54:44;;;;;;;4.97;4.55;;;;;;;;;;5058362;28;20048;-85
2021/08/31 09:57:29;;;;;;;5.50;4.43;;;;;;;;;;5053293;28;20047;-85
2021/08/31 09:59:56;;;;;;;5.57;4.57;;;;;;;;;;5041346;28;20056;-84
2021/08/31 10:02:23;;;;;;;4.65;3.97;;;;;;;;;;5072851;28;20028;-83
2021/08/31 10:04:50;;;;;;;4.85;4.35;;;;;;;;;;5061261;28;20017;-84
2021/08/31 10:07:16;;;;;;;5.47;4.45;;;;;;;;;;5053089;28;20037;-84
2021/08/31 10:09:43;;;;;;;5.20;4.20;;;;;;;;;;5067324;28;20033;-86
2021/08/31 10:12:10;;;;;;;4.30;3.90;;;;;;;;;;5072637;28;20095;-85
2021/08/31 10:14:43;;;;;;;4.35;3.58;;;;;;;;;;5048585;28;20049;-84
2021/08/31 10:17:10;;;;;;;4.15;3.75;;;;;;;;;;5040410;28;20045;-84
2021/08/31 10:19:37;;;;;;;5.18;3.95;;;;;;;;;;5041297;28;20056;-84
2021/08/31 10:22:04;;;;;;;3.60;3.25;;;;;;;;;;5040241;28;20060;-84
2021/08/31 10:24:30;;;;;;;4.03;3.63;;;;;;;;;;5043752;28;20053;-84
2021/08/31 10:26:56;;;;;;;4.20;3.80;;;;;;;;;;5042777;28;20697;-83
2021/08/31 10:29:22;;;;;;;5.88;3.50;;;;;;;;;;5042602;28;20053;-84
2021/08/31 10:31:49;;;;;;;4.10;3.55;;;;;;;;;;5059272;28;20032;-84
2021/08/31 10:34:33;;;;;;;3.88;3.47;;;;;;;;;;5058870;28;20025;-85
2021/08/31 10:37:02;;;;;;;5.38;4.55;;;;;;;;;;5067048;28;20040;-84
2021/08/31 10:39:45;;;;;;;3.95;3.47;;;;;;;;;;5063479;28;20025;-84
2021/08/31 10:42:12;;;;;;;3.78;3.38;;;;;;;;;;5063881;28;20073;-85
2021/08/31 10:44:41;;;;;;;5.28;3.90;;;;;;;;;;5065228;28;20060;-85
2021/08/31 10:47:14;;;;;;;3.92;3.47;;;;;;;;;;5042585;28;20029;-84
2021/08/31 10:49:58;;;;;;;4.28;3.38;;;;;;;;;;5059654;28;20074;-84
2021/08/31 10:52:35;;;;;;;3.97;3.53;;;;;;;;;;5062837;28;20021;-86
2021/08/31 10:55:01;;;;;;;3.58;3.10;;;;;;;;;;5062240;28;20112;-85
2021/08/31 10:57:36;;;;;;;4.28;3.88;;;;;;;;;;5061712;28;20037;-83
2021/08/31 11:00:12;;;;;;;3.17;2.88;;;;;;;;;;5057926;28;20523;-85
2021/08/31 11:02:50;;;;;;;3.17;2.83;;;;;;;;;;5064681;28;20033;-84
2021/08/31 11:05:35;;;;;;;3.47;3.10;;;;;;;;;;5061323;28;20050;-84
2021/08/31 11:08:01;;;;;;;4.50;3.50;;;;;;;;;;5050606;28;20033;-84
2021/08/31 11:10:29;;;;;;;3.28;2.88;;;;;;;;;;5052137;28;20478;-84
2021/08/31 11:12:57;;;;;;;3.38;3.08;;;;;;;;;;5047783;28;20075;-85
2021/08/31 11:15:27;;;;;;;3.28;2.95;;;;;;;;;;5066476;28;20077;-85
2021/08/31 11:17:54;;;;;;;4.53;3.60;;;;;;;;;;5066838;28;20036;-85
2021/08/31 11:20:25;;;;;;;5.50;2.95;;;;;;;;;;5059114;28;20057;-84
2021/08/31 11:22:54;;;;;;;4.85;3.25;;;;;;;;;;5066522;28;20052;-85
2021/08/31 11:25:36;;;;;;;6.10;3.58;;;;;;;;;;5053187;28;20060;-85
2021/08/31 11:28:47;;;;;;;6.78;3.40;;;;;;;;;;5061358;28;20112;-83
2021/08/31 11:31:13;;;;;;;3.38;3.05;;;;;;;;;;5073100;28;20025;-85
2021/08/31 11:33:40;;;;;;;3.60;3.25;;;;;;;;;;5099071;28;20025;-86
2021/08/31 11:36:14;;;;;;;4.05;3.22;;;;;;;;;;5077825;28;20008;-84
2021/08/31 11:38:43;;;;;;;4.47;3.20;;;;;;;;;;5060091;28;20025;-81
2021/08/31 11:41:22;;;;;;;3.95;2.95;;;;;;;;;;5049804;28;20120;-85
2021/08/31 11:44:08;;;;;;;5.28;3.08;;;;;;;;;;5056262;28;20066;-84
2021/08/31 11:46:35;;;;;;;3.63;3.22;;;;;;;;;;5059570;28;20061;-86
2021/08/31 11:49:20;;;;;;;5.70;3.28;;;;;;;;;;5052319;28;20032;-85
2021/08/31 11:51:49;;;;;;;3.58;2.90;;;;;;;;;;5065768;28;20507;-84
2021/08/31 11:54:33;;;;;;;4.57;3.17;;;;;;;;;;5066889;28;20021;-84
2021/08/31 11:57:02;;;;;;;3.50;3.20;;;;;;;;;;5063608;28;20034;-84
2021/08/31 11:59:48;;;;;;;3.80;3.47;;;;;;;;;;5048643;28;20026;-84
2021/08/31 12:02:25;;;;;;;6.20;3.28;;;;;;;;;;5075669;28;20506;-86
2021/08/31 12:04:54;;;;;;;3.88;3.13;;;;;;;;;;5075877;28;20033;-85
2021/08/31 12:07:22;;;;;;;2.88;2.58;;;;;;;;;;5059800;28;20079;-85
2021/08/31 12:09:49;;;;;;;3.85;3.05;;;;;;;;;;5055277;28;20045;-85
2021/08/31 12:12:15;;;;;;;3.90;3.08;;;;;;;;;;5064094;28;20020;-84
2021/08/31 12:14:45;;;;;;;4.95;2.85;;;;;;;;;;5047531;28;20096;-84
2021/08/31 12:17:11;;;;;;;4.15;3.28;;;;;;;;;;5059061;28;20049;-84
2021/08/31 12:19:38;;;;;;;7.72;3.40;;;;;;;;;;5071550;28;20035;-84
2021/08/31 12:22:10;;;;;;;3.30;3.00;;;;;;;;;;5063074;28;20044;-84
2021/08/31 12:24:37;;;;;;;2.97;2.78;;;;;;;;;;5053851;28;20302;-82
2021/08/31 12:27:14;;;;;;;3.78;3.38;;;;;;;;;;5058009;28;20026;-83
2021/08/31 12:29:44;;;;;;;4.72;2.92;;;;;;;;;;5074104;28;20055;-85
2021/08/31 12:32:10;;;;;;;3.33;3.03;;;;;;;;;;5075364;28;20044;-85
2021/08/31 12:34:36;;;;;;;3.72;3.40;;;;;;;;;;5049493;28;20134;-85
2021/08/31 12:37:03;;;;;;;5.32;4.05;;;;;;;;;;5050542;28;20021;-84
2021/08/31 12:39:31;;;;;;;3.72;3.42;;;;;;;;;;5059906;28;20115;-84
2021/08/31 12:41:58;;;;;;;5.45;3.85;;;;;;;;;;5065169;28;20481;-84
2021/08/31 12:44:24;;;;;;;4.82;3.50;;;;;;;;;;5051278;28;20029;-84
2021/08/31 12:46:52;;;;;;;5.65;4.03;;;;;;;;;;5061856;28;20064;-83
2021/08/31 12:49:20;;;;;;;3.90;3.55;;;;;;;;;;5049845;28;20021;-85
2021/08/31 12:51:56;;;;;;;5.43;4.05;;;;;;;;;;5061629;28;20036;-85
2021/08/31 12:54:26;;;;;;;5.28;3.70;;;;;;;;;;5055403;28;20029;-84
2021/08/31 12:56:56;;;;;;;5.22;4.63;;;;;;;;;;5042238;28;20112;-85
2021/08/31 12:59:44;;;;;;;4.43;3.53;;;;;;;;;;5059734;28;20064;-85
2021/08/31 13:02:12;;;;;;;3.67;3.38;;;;;;;;;;5078313;28;20112;-83
2021/08/31 13:04:39;;;;;;;3.85;3.45;;;;;;;;;;5058943;28;20018;-82
2021/08/31 13:07:09;;;;;;;4.90;3.33;;;;;;;;;;5059037;28;20045;-80
2021/08/31 13:09:36;;;;;;;3.22;2.92;;;;;;;;;;5075699;28;20033;-82
2021/08/31 13:12:03;;;;;;;3.35;3.05;;;;;;;;;;5052784;28;20048;-85
2021/08/31 13:14:32;;;;;;;3.75;3.28;;;;;;;;;;5062017;28;20017;-85
2021/08/31 13:16:58;;;;;;;3.67;3.03;;;;;;;;;;5063658;28;20040;-83
2021/08/31 13:19:24;;;;;;;3.97;3.35;;;;;;;;;;5063943;28;20059;-83
2021/08/31 13:21:51;;;;;;;3.20;2.90;;;;;;;;;;5043757;28;20497;-85
2021/08/31 13:24:17;;;;;;;3.97;3.22;;;;;;;;;;5040817;28;20087;-84
2021/08/31 13:26:44;;;;;;;4.07;3.50;;;;;;;;;;5048432;28;20365;-85
2021/08/31 13:29:11;;;;;;;5.22;3.70;;;;;;;;;;5050496;28;20052;-84
2021/08/31 13:31:38;;;;;;;4.93;3.25;;;;;;;;;;5066695;28;20017;-84
2021/08/31 13:34:07;;;;;;;5.45;3.28;;;;;;;;;;5079122;28;20028;-82
2021/08/31 13:36:33;;;;;;;5.10;3.67;;;;;;;;;;5053384;28;20056;-85
2021/08/31 13:39:31;;;;;;;4.60;3.20;;;;;;;;;;5055294;28;20029;-84
2021/08/31 13:41:57;;;;;;;3.45;3.15;;;;;;;;;;5058527;28;20033;-84
2021/08/31 13:44:23;;;;;;;3.45;3.15;;;;;;;;;;5041553;28;20413;-83
2021/08/31 13:46:49;;;;;;;3.58;3.28;;;;;;;;;;5043112;28;20044;-84
2021/08/31 13:49:15;;;;;;;3.97;2.80;;;;;;;;;;5041039;28;20036;-83
2021/08/31 13:51:41;;;;;;;3.97;3.40;;;;;;;;;;5042597;28;20048;-83
2021/08/31 13:54:08;;;;;;;3.67;3.30;;;;;;;;;;5044346;28;20022;-82
2021/08/31 13:56:34;;;;;;;3.65;3.10;;;;;;;;;;5058971;28;20143;-84
2021/08/31 13:59:00;;;;;;;3.85;3.45;;;;;;;;;;5066757;28;20033;-84
2021/08/31 14:01:26;;;;;;;4.75;2.90;;;;;;;;;;5066196;28;20036;-84
2021/08/31 14:03:52;;;;;;;2.80;2.55;;;;;;;;;;5067062;28;20032;-84
2021/08/31 14:06:19;;;;;;;3.17;2.88;;;;;;;;;;5048873;28;20061;-84
2021/08/31 14:08:45;;;;;;;3.30;3.00;;;;;;;;;;5051850;28;20040;-84
2021/08/31 14:11:11;;;;;;;3.58;3.17;;;;;;;;;;5049671;28;20025;-83
2021/08/31 14:13:37;;;;;;;3.30;2.97;;;;;;;;;;5044707;28;20056;-83
2021/08/31 14:16:03;;;;;;;3.30;3.00;;;;;;;;;;5058999;28;20017;-85
2021/08/31 14:18:29;;;;;;;3.58;3.28;;;;;;;;;;5052101;28;20124;-84
2021/08/31 14:20:56;;;;;;;4.88;3.40;;;;;;;;;;5048142;28;20037;-85
2021/08/31 14:23:23;;;;;;;3.85;3.30;;;;;;;;;;5046529;28;20039;-83
2021/08/31 14:25:49;;;;;;;4.68;2.90;;;;;;;;;;5053667;22;20033;-85
2021/08/31 14:28:20;;;;;;;3.20;2.90;;;;;;;;;;5048813;28;20105;-86
2021/08/31 14:30:47;;;;;;;4.30;3.00;;;;;;;;;;5054200;28;20025;-86
2021/08/31 14:33:13;;;;;;;5.47;3.72;;;;;;;;;;5045179;28;20022;-86
2021/08/31 14:35:39;;;;;;;2.78;2.58;;;;;;;;;;5043202;28;20023;-86
2021/08/31 14:38:06;;;;;;;4.22;3.20;;;;;;;;;;5032784;28;20033;-87
2021/08/31 14:40:34;;;;;;;5.68;3.00;;;;;;;;;;5041097;28;20033;-85
2021/08/31 14:43:00;;;;;;;3.17;2.88;;;;;;;;;;5036858;28;20026;-85
2021/08/31 14:45:26;;;;;;;3.30;2.80;;;;;;;;;;5023741;28;20053;-86
2021/08/31 14:47:52;;;;;;;4.00;3.00;;;;;;;;;;5031870;28;20026;-86
2021/08/31 14:50:18;;;;;;;4.47;3.20;;;;;;;;;;5021300;28;20378;-87
2021/08/31 14:52:44;;;;;;;3.47;2.55;;;;;;;;;;5021193;28;20096;-86
2021/08/31 14:55:11;;;;;;;4.68;3.70;;;;;;;;;;5021437;28;20037;-86
2021/08/31 14:57:38;;;;;;;4.82;3.03;;;;;;;;;;5021566;28;20036;-86
2021/08/31 15:00:04;;;;;;;3.28;2.78;;;;;;;;;;5034092;28;20124;-85
2021/08/31 15:02:30;;;;;;;3.78;3.08;;;;;;;;;;5030874;28;20040;-87
2021/08/31 15:04:56;;;;;;;5.28;3.40;;;;;;;;;;5034560;28;20401;-86
2021/08/31 15:07:22;;;;;;;3.78;3.05;;;;;;;;;;5033435;28;20055;-87
2021/08/31 15:09:49;;;;;;;4.55;3.25;;;;;;;;;;5041253;28;20062;-87
2021/08/31 15:12:15;;;;;;;3.35;3.00;;;;;;;;;;5027044;28;20061;-86
2021/08/31 15:14:42;;;;;;;3.63;3.17;;;;;;;;;;5042277;28;20017;-86
2021/08/31 15:17:10;;;;;;;3.70;2.97;;;;;;;;;;5039836;28;20030;-86
2021/08/31 15:19:37;;;;;;;4.00;3.42;;;;;;;;;;5027368;28;20481;-85
2021/08/31 15:22:03;;;;;;;3.78;2.95;;;;;;;;;;5029669;28;20081;-86
2021/08/31 15:24:29;;;;;;;3.60;3.30;;;;;;;;;;5022899;28;20034;-85
2021/08/31 15:26:55;;;;;;;5.35;4.20;;;;;;;;;;5022451;28;20088;-86
2021/08/31 15:29:22;;;;;;;6.40;3.42;;;;;;;;;;5021034;28;20084;-86